Time;durP1;ratioP1;P1;durP2;ratioP2;P2;SDS_P1;SDS_P2;PMS_P1;PMS_P2;Temp;Humidity;BMP_temperature;BMP_pressure;BME280_temperature;BME280_humidity;BME280_pressure;Samples;Min_cycle;Max_cycle;Signal;HPM_P1;HPM_P2
2023/01/05 00:01:22;;;;;;;4.53;4.20;;;;;;;7.13;57.23;94376.01;1749501;81;21061;-42
2023/01/05 00:03:49;;;;;;;4.35;3.98;;;;;;;7.17;57.25;94364.97;1745036;81;20957;-43
2023/01/05 00:06:17;;;;;;;4.05;3.65;;;;;;;7.21;57.20;94354.11;1684736;84;22149;-41
2023/01/05 00:08:43;;;;;;;4.28;3.87;;;;;;;7.24;57.14;94346.98;1679455;84;20986;-46
2023/01/05 00:22:32;;;;;;;3.50;3.30;;;;;;;7.37;57.00;94314.32;1634267;86;21082;-42
2023/01/05 00:25:11;;;;;;;3.83;3.52;;;;;;;7.37;57.01;94303.99;1608063;88;21046;-42
2023/01/05 00:27:41;;;;;;;3.77;3.58;;;;;;;7.39;57.42;94305.10;1600787;88;21013;-42
2023/01/05 00:30:13;;;;;;;3.80;3.60;;;;;;;7.42;57.57;94302.07;1619137;86;21063;-42
2023/01/05 00:32:41;;;;;;;3.65;3.40;;;;;;;7.43;57.38;94296.17;1613880;87;21857;-42
2023/01/05 00:35:09;;;;;;;3.50;3.30;;;;;;;7.49;57.41;94301.88;1652369;85;21082;-42
2023/01/05 00:37:37;;;;;;;3.72;3.42;;;;;;;7.51;57.40;94290.63;1668964;84;21041;-41
2023/01/05 00:40:09;;;;;;;4.40;4.10;;;;;;;7.55;57.45;94289.91;1666644;84;21030;-42
2023/01/05 00:42:36;;;;;;;3.35;3.15;;;;;;;7.61;57.77;94280.56;1593572;89;21077;-44
2023/01/05 00:45:07;;;;;;;3.20;3.00;;;;;;;7.68;57.80;94273.51;1589841;89;21027;-41
2023/01/05 00:47:35;;;;;;;3.47;3.27;;;;;;;7.73;57.96;94284.65;1585352;89;21216;-41
2023/01/05 00:50:02;;;;;;;5.08;3.92;;;;;;;7.79;57.93;94293.08;1593133;89;21118;-41
2023/01/05 00:52:29;;;;;;;5.12;4.22;;;;;;;7.85;57.67;94275.66;1597173;89;21537;-42
2023/01/05 00:54:56;;;;;;;4.25;3.85;;;;;;;7.92;57.49;94290.48;1589470;89;21114;-43
2023/01/05 00:57:23;;;;;;;6.50;5.45;;;;;;;7.99;57.37;94276.58;1598282;89;21304;-42
2023/01/05 00:59:52;;;;;;;7.17;5.67;;;;;;;8.02;57.27;94268.06;1588535;89;21125;-43
2023/01/05 01:02:19;;;;;;;5.22;4.78;;;;;;;8.07;57.10;94279.84;1582831;89;21184;-43
2023/01/05 01:04:46;;;;;;;3.35;3.10;;;;;;;8.07;56.92;94280.59;1594273;88;21634;-42
2023/01/05 01:07:13;;;;;;;2.98;2.77;;;;;;;8.04;57.15;94258.20;1548795;89;20958;-43
2023/01/05 01:09:40;;;;;;;3.20;3.00;;;;;;;8.02;57.00;94251.03;1595543;84;21258;-43
2023/01/05 01:12:07;;;;;;;5.25;4.60;;;;;;;8.00;57.22;94245.83;1667490;84;21122;-42
2023/01/05 01:14:35;;;;;;;5.22;4.83;;;;;;;7.99;57.04;94247.03;1676048;84;21098;-42
2023/01/05 01:17:02;;;;;;;2.90;2.80;;;;;;;7.99;57.21;94234.71;1679040;84;21111;-42
2023/01/05 01:19:29;;;;;;;3.30;3.10;;;;;;;7.96;57.10;94237.75;1667223;84;21168;-42
2023/01/05 01:21:55;;;;;;;6.05;3.67;;;;;;;7.95;57.14;94255.98;1672951;84;22014;-42
2023/01/05 01:24:26;;;;;;;6.42;4.95;;;;;;;7.96;56.92;94245.97;1647443;85;21091;-42
2023/01/05 01:26:54;;;;;;;4.62;4.28;;;;;;;8.00;57.22;94271.26;1650768;84;21054;-43
2023/01/05 01:29:21;;;;;;;10.78;6.55;;;;;;;8.06;56.97;94254.41;1682741;84;21039;-42
2023/01/05 01:31:50;;;;;;;6.10;4.65;;;;;;;8.07;56.83;94248.34;1679463;84;20998;-42
2023/01/05 01:34:17;;;;;;;9.78;6.65;;;;;;;8.08;56.75;94242.41;1662366;84;21893;-42
2023/01/05 01:36:45;;;;;;;5.50;4.40;;;;;;;8.09;56.81;94238.45;1668745;84;21087;-43
2023/01/05 01:39:12;;;;;;;5.20;2.95;;;;;;;8.08;56.91;94231.45;1659849;84;21567;-41
2023/01/05 01:41:42;;;;;;;3.42;3.22;;;;;;;8.06;56.93;94235.86;1678457;84;21185;-42
2023/01/05 01:44:50;;;;;;;4.87;4.42;;;;;;;8.05;57.09;94213.78;1666227;84;21145;-41
2023/01/05 01:47:32;;;;;;;9.98;5.53;;;;;;;8.03;57.10;94221.06;1770686;77;21153;-47
2023/01/05 01:50:07;;;;;;;3.58;3.27;;;;;;;8.04;57.36;94225.33;1730821;80;20961;-47
2023/01/05 01:52:34;;;;;;;6.45;4.92;;;;;;;8.03;57.36;94207.98;1726412;81;21033;-47
2023/01/05 01:55:02;;;;;;;7.40;6.80;;;;;;;8.01;57.29;94220.75;1728064;81;21007;-48
2023/01/05 01:57:28;;;;;;;5.35;3.30;;;;;;;8.03;57.29;94207.37;1701006;81;21121;-49
2023/01/05 01:59:57;;;;;;;8.88;8.05;;;;;;;8.06;57.28;94191.41;1739122;82;21250;-47
2023/01/05 02:02:25;;;;;;;12.00;10.78;;;;;;;8.07;57.33;94175.13;1739090;81;21018;-47
2023/01/05 02:04:52;;;;;;;13.78;10.85;;;;;;;8.07;57.29;94161.44;1729310;81;21014;-47
2023/01/05 02:07:21;;;;;;;19.57;16.25;;;;;;;8.04;57.36;94145.90;1724207;81;21521;-47
2023/01/05 02:09:48;;;;;;;38.00;29.52;;;;;;;8.01;57.23;94152.27;1731637;81;21529;-48
2023/01/05 02:12:23;;;;;;;25.12;19.70;;;;;;;8.03;57.34;94152.59;1731748;81;21208;-47
2023/01/05 02:15:27;;;;;;;12.85;11.12;;;;;;;8.02;57.45;94151.06;1734373;81;21545;-47
2023/01/05 02:18:26;;;;;;;14.98;13.00;;;;;;;8.01;57.62;94144.05;1674755;85;21142;-46
2023/01/05 02:20:59;;;;;;;38.67;26.62;;;;;;;8.01;57.62;94144.05;1673116;84;21640;-47
2023/01/05 02:23:54;;;;;;;13.00;10.68;;;;;;;8.04;57.46;94143.16;1675949;83;21151;-47
2023/01/05 02:26:30;;;;;;;9.80;7.33;;;;;;;8.02;57.47;94133.26;1656647;84;22194;-47
2023/01/05 02:29:40;;;;;;;13.05;11.40;;;;;;;8.00;57.75;94146.63;1667024;85;21156;-48
2023/01/05 02:32:21;;;;;;;18.70;15.83;;;;;;;7.99;57.53;94110.88;1664010;85;21002;-47
2023/01/05 02:35:13;;;;;;;4.45;3.50;;;;;;;7.98;57.57;94119.52;1654647;85;21140;-47
2023/01/05 02:37:45;;;;;;;11.03;7.12;;;;;;;7.94;57.45;94121.03;1670027;84;21480;-47
2023/01/05 02:40:23;;;;;;;10.48;9.05;;;;;;;7.95;57.55;94121.20;1666059;84;21637;-47
2023/01/05 02:42:50;;;;;;;6.45;5.03;;;;;;;7.95;57.51;94103.39;1591590;89;21251;-47
2023/01/05 02:45:21;;;;;;;4.05;3.33;;;;;;;7.95;57.46;94090.30;1594810;89;21171;-47
2023/01/05 02:50:59;;;;;;;6.95;6.25;;;;;;;7.94;57.45;94117.52;1823828;77;26914;-48
2023/01/05 02:53:34;;;;;;;8.23;4.80;;;;;;;7.94;57.57;94132.58;1811802;78;21052;-47
2023/01/05 02:56:21;;;;;;;6.60;5.00;;;;;;;7.99;57.09;94121.83;1795120;79;21136;-47
2023/01/05 02:58:54;;;;;;;4.25;3.85;;;;;;;8.07;57.05;94131.93;1735170;81;21009;-47
2023/01/05 03:01:28;;;;;;;9.85;6.72;;;;;;;8.11;56.68;94126.46;1612907;88;21038;-47
2023/01/05 03:04:07;;;;;;;7.78;5.60;;;;;;;8.16;56.72;94125.13;1596388;89;21169;-48
2023/01/05 03:06:45;;;;;;;15.35;6.92;;;;;;;8.20;56.59;94123.05;1588436;89;21039;-47
2023/01/05 03:09:10;;;;;;;10.10;5.42;;;;;;;8.24;56.57;94138.16;1643377;86;21151;-47
2023/01/05 03:14:52;;;;;;;3.22;3.02;;;;;;;8.27;56.13;94108.49;1631377;86;20997;-47
2023/01/05 03:17:34;;;;;;;4.95;4.47;;;;;;;8.24;56.10;94082.61;1595052;88;21058;-48
2023/01/05 03:20:02;;;;;;;7.03;4.27;;;;;;;8.24;56.18;94083.36;1638952;86;21660;-48
2023/01/05 03:36:51;;;;;;;2.92;2.80;;;;;;;8.13;56.16;94069.28;1655459;84;22148;-46
2023/01/05 03:39:18;;;;;;;2.60;2.50;;;;;;;8.09;56.29;94043.97;1677637;84;21001;-48
2023/01/05 03:41:46;;;;;;;7.28;5.17;;;;;;;8.08;56.34;94033.48;1649078;84;21008;-48
2023/01/05 03:44:13;;;;;;;3.33;3.12;;;;;;;8.07;56.56;94018.26;1664126;85;21088;-48
2023/01/05 03:46:41;;;;;;;7.20;5.30;;;;;;;8.05;56.42;94020.69;1663399;84;21021;-48
2023/01/05 03:49:09;;;;;;;4.60;4.12;;;;;;;8.04;56.70;94047.91;1645899;84;21312;-48
2023/01/05 03:51:36;;;;;;;4.35;3.95;;;;;;;8.07;56.29;94029.96;1688938;84;20986;-47
2023/01/05 03:54:03;;;;;;;9.85;6.70;;;;;;;8.10;56.17;94020.84;1659375;84;21086;-47
2023/01/05 03:56:31;;;;;;;3.42;3.22;;;;;;;8.12;56.28;94010.23;1677437;84;20992;-48
2023/01/05 03:58:58;;;;;;;3.42;3.12;;;;;;;8.11;56.01;93999.08;1763544;79;21069;-47
2023/01/05 04:01:25;;;;;;;2.90;2.70;;;;;;;8.12;56.22;93989.68;1788351;79;21251;-47
2023/01/05 04:03:52;;;;;;;3.00;2.80;;;;;;;8.11;56.13;93970.32;1775338;79;21064;-47
2023/01/05 04:06:19;;;;;;;2.80;2.65;;;;;;;8.07;56.46;93961.48;1796530;79;21001;-48
2023/01/05 04:08:46;;;;;;;3.00;2.72;;;;;;;8.04;56.63;93961.02;1790627;79;21137;-47
2023/01/05 04:11:17;;;;;;;3.62;3.40;;;;;;;8.00;56.97;93974.09;1801888;79;20929;-48
2023/01/05 04:13:45;;;;;;;3.05;2.85;;;;;;;7.99;57.36;93957.50;1730325;81;21287;-47
2023/01/05 04:16:12;;;;;;;3.92;3.62;;;;;;;7.99;57.45;93949.87;1745293;81;20980;-49
2023/01/05 04:18:41;;;;;;;2.50;2.40;;;;;;;7.98;57.54;93936.03;1739361;81;21095;-48
2023/01/05 04:21:09;;;;;;;3.50;3.30;;;;;;;7.97;57.85;93946.23;1734260;81;21563;-47
2023/01/05 04:23:36;;;;;;;4.35;3.95;;;;;;;7.98;57.97;93978.48;1738340;81;22621;-47
2023/01/05 04:26:04;;;;;;;3.10;2.90;;;;;;;7.97;58.26;93950.94;1741900;81;21429;-48
2023/01/05 04:28:30;;;;;;;3.20;3.00;;;;;;;7.96;58.21;93958.41;1743445;81;21575;-48
2023/01/05 04:30:58;;;;;;;6.75;5.03;;;;;;;7.94;58.36;93958.09;1729631;81;21102;-48
2023/01/05 04:33:25;;;;;;;5.70;3.60;;;;;;;7.90;58.63;93943.00;1734784;81;21011;-54
2023/01/05 04:35:52;;;;;;;4.80;4.40;;;;;;;7.88;58.78;93952.27;1743187;81;21089;-49
2023/01/05 04:38:19;;;;;;;4.20;3.90;;;;;;;7.90;58.95;93931.42;1748372;81;21269;-49
2023/01/05 04:40:49;;;;;;;5.85;5.28;;;;;;;7.93;58.75;93936.03;1740658;81;21527;-47
2023/01/05 04:43:18;;;;;;;4.35;4.05;;;;;;;7.98;58.50;93927.81;1699654;83;21148;-49
2023/01/05 04:45:47;;;;;;;7.42;6.72;;;;;;;8.00;58.64;93922.05;1662065;83;21719;-48
2023/01/05 04:48:14;;;;;;;7.37;6.72;;;;;;;8.04;58.31;93920.56;1702476;83;21125;-47
2023/01/05 04:50:41;;;;;;;7.92;6.47;;;;;;;8.08;58.19;93934.25;1695527;83;21262;-48
2023/01/05 04:53:08;;;;;;;6.83;6.08;;;;;;;8.12;57.87;93936.27;1706221;83;21026;-47
2023/01/05 04:55:38;;;;;;;5.62;5.22;;;;;;;8.17;57.86;93945.26;1695314;83;21052;-48
2023/01/05 04:58:05;;;;;;;4.30;4.00;;;;;;;8.17;57.86;93939.78;1674826;83;21069;-48
2023/01/05 05:00:33;;;;;;;4.80;4.50;;;;;;;8.19;57.91;93937.38;1691396;83;21648;-47
2023/01/05 05:03:01;;;;;;;39.65;25.45;;;;;;;8.20;57.83;93936.75;1701722;83;21251;-47
2023/01/05 05:05:28;;;;;;;9.40;8.50;;;;;;;8.22;57.75;93924.77;1684165;84;21093;-47
2023/01/05 05:07:56;;;;;;;18.27;13.32;;;;;;;8.23;57.81;93909.23;1691313;83;21092;-46
2023/01/05 05:10:25;;;;;;;66.40;44.38;;;;;;;8.26;57.86;93886.40;1713419;81;21009;-47
2023/01/05 05:12:51;;;;;;;14.65;10.68;;;;;;;8.28;57.94;93910.00;1770865;80;21459;-48
2023/01/05 05:15:18;;;;;;;56.77;34.63;;;;;;;8.28;58.02;93908.63;1764903;80;21071;-48
2023/01/05 05:17:47;;;;;;;38.75;25.00;;;;;;;8.29;58.02;93915.62;1728804;82;20962;-48
2023/01/05 05:20:14;;;;;;;32.33;20.00;;;;;;;8.31;58.30;93896.01;1710291;81;21014;-48
2023/01/05 05:22:42;;;;;;;16.25;10.43;;;;;;;8.31;58.54;93902.27;1713692;82;21018;-49
2023/01/05 05:25:09;;;;;;;4.70;4.20;;;;;;;8.30;58.33;93883.53;1719640;81;21534;-47
2023/01/05 05:27:39;;;;;;;25.65;14.95;;;;;;;8.30;58.33;93887.64;1725262;82;21094;-48
2023/01/05 05:30:08;;;;;;;81.08;44.48;;;;;;;8.30;58.42;93869.23;1729320;81;21618;-48
2023/01/05 05:32:35;;;;;;;12.03;8.55;;;;;;;8.30;58.42;93858.86;1718656;82;21049;-46
2023/01/05 05:35:01;;;;;;;24.60;14.83;;;;;;;8.30;58.07;93869.23;1792151;79;20970;-45
2023/01/05 05:37:28;;;;;;;18.92;11.20;;;;;;;8.34;58.01;93860.25;1796540;79;21068;-45
2023/01/05 05:39:55;;;;;;;79.92;42.08;;;;;;;8.35;57.65;93854.92;1797074;79;21226;-46
2023/01/05 05:42:23;;;;;;;35.95;19.40;;;;;;;8.35;57.93;93864.52;1763913;80;20974;-46
2023/01/05 05:44:49;;;;;;;24.32;13.38;;;;;;;8.33;57.82;93869.69;1770139;80;21021;-47
2023/01/05 05:47:16;;;;;;;19.10;10.95;;;;;;;8.33;57.65;93849.14;1763677;80;20970;-46
2023/01/05 05:49:43;;;;;;;4.35;3.50;;;;;;;8.34;57.66;93869.84;1779418;80;21163;-47
2023/01/05 05:52:09;;;;;;;17.35;11.12;;;;;;;8.34;57.76;93846.55;1752948;80;21266;-46
2023/01/05 05:54:36;;;;;;;32.63;18.10;;;;;;;8.35;57.74;93869.22;1761906;80;21049;-46
2023/01/05 05:57:03;;;;;;;82.10;37.23;;;;;;;8.36;57.82;93855.08;1771659;80;20962;-46
2023/01/05 05:59:30;;;;;;;116.28;44.67;;;;;;;8.37;57.86;93877.16;1778497;80;21280;-49
2023/01/05 06:01:56;;;;;;;146.18;62.90;;;;;;;8.38;57.89;93856.75;1761294;80;21003;-48
2023/01/05 06:04:23;;;;;;;64.10;29.72;;;;;;;8.39;58.01;93867.86;1756725;80;21152;-48
2023/01/05 06:06:50;;;;;;;22.70;11.97;;;;;;;8.38;57.97;93841.68;1716386;80;21072;-49
2023/01/05 06:09:16;;;;;;;167.37;77.12;;;;;;;8.35;57.88;93861.00;1766614;80;21026;-49
2023/01/05 06:11:43;;;;;;;82.15;39.10;;;;;;;8.32;58.20;93865.43;1771763;80;21039;-50
2023/01/05 06:14:10;;;;;;;17.55;10.72;;;;;;;8.30;58.22;93865.13;1775064;79;21131;-48
2023/01/05 06:16:37;;;;;;;34.10;21.30;;;;;;;8.31;58.20;93855.69;1767408;80;21152;-48
2023/01/05 06:19:03;;;;;;;59.20;35.35;;;;;;;8.32;58.24;93855.84;1797448;78;20981;-49
2023/01/05 06:21:30;;;;;;;21.07;14.25;;;;;;;8.33;58.40;93848.36;1789431;79;21066;-49
2023/01/05 06:23:57;;;;;;;21.10;14.10;;;;;;;8.30;58.21;93861.02;1799708;79;21052;-49
2023/01/05 06:26:24;;;;;;;19.30;13.70;;;;;;;8.30;58.33;93852.02;1746264;80;21069;-50
2023/01/05 06:28:50;;;;;;;17.70;11.57;;;;;;;8.25;58.44;93836.93;1747145;81;21298;-49
2023/01/05 06:31:17;;;;;;;19.40;11.63;;;;;;;8.19;58.73;93841.49;1741597;81;21072;-50
2023/01/05 06:33:43;;;;;;;7.12;6.42;;;;;;;8.17;59.02;93842.53;1727809;81;21057;-49
2023/01/05 06:36:10;;;;;;;7.30;6.55;;;;;;;8.12;59.32;93840.39;1732421;82;21002;-50
2023/01/05 06:38:37;;;;;;;8.18;7.37;;;;;;;8.10;59.41;93835.20;1698814;83;21600;-49
2023/01/05 06:41:04;;;;;;;6.97;6.28;;;;;;;8.08;59.53;93843.86;1682726;82;21870;-51
2023/01/05 06:43:32;;;;;;;30.52;27.20;;;;;;;8.07;59.66;93854.66;1734386;80;21073;-50
2023/01/05 06:45:59;;;;;;;15.90;9.20;;;;;;;8.07;59.51;93864.25;1736659;81;21186;-49
2023/01/05 06:48:26;;;;;;;16.48;11.85;;;;;;;8.07;59.61;93850.55;1693374;81;21093;-49
2023/01/05 06:50:53;;;;;;;22.98;14.07;;;;;;;8.06;59.90;93857.87;1717465;80;21065;-51
2023/01/05 06:53:20;;;;;;;15.78;10.82;;;;;;;8.07;60.01;93832.01;1735818;81;22390;-50
2023/01/05 06:55:46;;;;;;;14.07;9.10;;;;;;;8.09;59.73;93841.27;1744196;80;20997;-51
2023/01/05 06:58:14;;;;;;;7.92;7.12;;;;;;;8.12;59.94;93848.61;1700545;82;21109;-49
2023/01/05 07:00:41;;;;;;;5.90;5.30;;;;;;;8.14;59.82;93813.90;1758136;79;21062;-52
2023/01/05 07:03:13;;;;;;;5.05;4.40;;;;;;;8.15;59.59;93839.48;1762606;79;21665;-51
2023/01/05 07:05:42;;;;;;;19.80;11.70;;;;;;;8.19;59.66;93844.23;1741798;79;21672;-50
2023/01/05 07:08:09;;;;;;;13.55;10.35;;;;;;;8.23;59.69;93842.11;1748132;80;21096;-51
2023/01/05 07:10:36;;;;;;;12.47;7.95;;;;;;;8.28;59.60;93846.98;1748545;80;21099;-50
2023/01/05 07:13:02;;;;;;;13.85;8.13;;;;;;;8.32;59.19;93843.51;1785350;78;21121;-52
2023/01/05 07:15:29;;;;;;;16.10;7.67;;;;;;;8.35;59.14;93850.81;1745035;80;21640;-49
2023/01/05 07:17:57;;;;;;;4.40;4.00;;;;;;;8.39;59.06;93843.20;1740484;80;21143;-53
2023/01/05 07:20:24;;;;;;;5.25;4.75;;;;;;;8.43;58.75;93850.66;1688573;82;21126;-51
2023/01/05 07:22:51;;;;;;;16.87;11.88;;;;;;;8.45;58.65;93844.73;1700380;82;21085;-55
2023/01/05 07:25:18;;;;;;;4.00;3.62;;;;;;;8.48;58.82;93846.56;1677962;82;21088;-52
2023/01/05 07:27:51;;;;;;;5.20;4.70;;;;;;;8.50;58.60;93833.94;1690998;82;21502;-52
2023/01/05 07:30:18;;;;;;;12.43;6.85;;;;;;;8.51;58.61;93831.34;1696942;82;21291;-53
2023/01/05 07:32:45;;;;;;;11.35;7.05;;;;;;;8.55;58.67;93829.81;1732139;79;21223;-52
2023/01/05 07:35:12;;;;;;;4.92;4.42;;;;;;;8.52;58.74;93835.61;1742236;80;21157;-53
2023/01/05 07:37:39;;;;;;;11.12;6.83;;;;;;;8.48;58.56;93843.23;1749006;80;21367;-53
2023/01/05 07:40:08;;;;;;;6.80;3.67;;;;;;;8.46;58.85;93841.52;1770145;78;21557;-52
2023/01/05 07:42:35;;;;;;;6.08;4.08;;;;;;;8.47;58.85;93852.64;1772507;78;21194;-50
2023/01/05 07:45:05;;;;;;;4.55;3.87;;;;;;;8.43;58.92;93841.07;1768668;79;21120;-52
2023/01/05 07:47:32;;;;;;;4.60;3.55;;;;;;;8.41;59.15;93861.32;1791678;78;21052;-51
2023/01/05 07:49:59;;;;;;;18.87;4.58;;;;;;;8.41;59.18;93861.95;1736327;81;21489;-49
2023/01/05 07:52:28;;;;;;;13.13;4.35;;;;;;;8.42;59.22;93852.50;1711962;82;21060;-52
2023/01/05 07:54:57;;;;;;;5.28;4.78;;;;;;;8.44;59.38;93839.85;1709399;80;21342;-49
2023/01/05 07:57:24;;;;;;;12.18;7.75;;;;;;;8.46;59.39;93844.27;1748652;80;21016;-51
2023/01/05 07:59:50;;;;;;;21.82;7.58;;;;;;;8.51;59.12;93851.13;1763710;79;21089;-50
2023/01/05 08:02:19;;;;;;;5.78;3.98;;;;;;;8.57;58.95;93854.19;1759157;79;21574;-51
2023/01/05 08:04:46;;;;;;;54.77;25.57;;;;;;;8.63;58.53;93848.25;1694936;82;21116;-52
2023/01/05 08:07:14;;;;;;;34.95;15.68;;;;;;;8.64;58.50;93853.13;1720252;81;22678;-50
2023/01/05 08:12:28;;;;;;;12.53;6.67;;;;;;;8.65;57.99;93869.11;1684384;83;21101;-54
2023/01/05 08:14:55;;;;;;;12.78;7.80;;;;;;;8.68;57.58;93871.56;1658259;84;21169;-58
2023/01/05 08:17:22;;;;;;;11.53;4.90;;;;;;;8.71;57.56;93863.19;1697956;82;21169;-51
2023/01/05 08:19:48;;;;;;;24.00;8.70;;;;;;;8.74;57.19;93847.20;1763186;79;21255;-50
2023/01/05 08:22:15;;;;;;;12.55;4.62;;;;;;;8.81;57.25;93837.28;1731338;80;21077;-57
2023/01/05 08:24:42;;;;;;;14.80;6.05;;;;;;;8.87;56.93;93841.55;1747463;80;21004;-57
2023/01/05 08:27:09;;;;;;;14.43;5.87;;;;;;;8.88;57.09;93848.56;1738883;80;21116;-53
2023/01/05 08:29:35;;;;;;;13.90;5.60;;;;;;;8.89;57.30;93850.86;1772407;80;21246;-53
2023/01/05 08:32:03;;;;;;;5.00;4.10;;;;;;;8.92;57.15;93854.05;1724355;81;21148;-51
2023/01/05 08:34:31;;;;;;;3.65;3.35;;;;;;;8.92;56.90;93858.16;1714829;81;22387;-50
2023/01/05 08:36:58;;;;;;;4.30;3.90;;;;;;;8.89;56.52;93873.55;1766550;79;21137;-53
2023/01/05 08:39:24;;;;;;;5.92;5.22;;;;;;;8.86;56.75;93879.20;1782211;79;21049;-52
2023/01/05 08:41:52;;;;;;;5.45;4.25;;;;;;;8.87;56.76;93871.13;1764679;78;21621;-53
2023/01/05 08:44:25;;;;;;;13.72;7.10;;;;;;;8.88;56.77;93876.77;1768826;78;22045;-50
2023/01/05 08:46:52;;;;;;;11.33;5.30;;;;;;;8.93;56.83;93876.92;1779304;78;21575;-50
2023/01/05 08:49:21;;;;;;;6.37;3.30;;;;;;;9.01;56.61;93878.13;1768204;78;21198;-50
2023/01/05 08:52:03;;;;;;;9.48;4.78;;;;;;;9.07;55.88;93885.14;1706406;80;21026;-49
2023/01/05 08:54:33;;;;;;;7.78;3.95;;;;;;;9.11;55.93;93885.74;1761233;78;21466;-52
2023/01/05 08:57:01;;;;;;;9.73;4.20;;;;;;;9.11;55.79;93863.80;1799974;78;21322;-50
2023/01/05 08:59:28;;;;;;;6.05;4.40;;;;;;;9.11;56.18;93859.67;1739118;80;21055;-51
2023/01/05 09:01:55;;;;;;;8.45;4.62;;;;;;;9.12;56.17;93868.06;1738655;80;21054;-53
2023/01/05 09:04:23;;;;;;;10.65;4.78;;;;;;;9.14;56.32;93872.47;1774097;79;21056;-51
2023/01/05 09:06:50;;;;;;;4.78;3.83;;;;;;;9.11;56.14;93855.56;1767791;79;21061;-50
2023/01/05 09:09:18;;;;;;;3.85;3.55;;;;;;;9.08;56.15;93840.02;1769569;79;21243;-51
2023/01/05 09:11:44;;;;;;;5.60;4.42;;;;;;;9.05;56.35;93843.69;1771248;79;21244;-51
2023/01/05 09:14:14;;;;;;;5.37;4.87;;;;;;;9.02;56.73;93839.88;1750778;79;21064;-52
2023/01/05 09:16:40;;;;;;;4.37;3.98;;;;;;;8.97;57.04;93836.38;1735042;80;21081;-50
2023/01/05 09:19:08;;;;;;;7.10;3.85;;;;;;;8.94;57.10;93835.93;1742066;81;21473;-51
2023/01/05 09:21:38;;;;;;;5.72;3.87;;;;;;;8.92;57.15;93821.88;1773122;78;21151;-50
2023/01/05 09:24:06;;;;;;;4.45;3.80;;;;;;;8.92;57.27;93816.40;1748318;79;21602;-55
2023/01/05 09:26:34;;;;;;;6.78;4.20;;;;;;;8.91;57.42;93812.76;1780102;79;21499;-50
2023/01/05 09:29:00;;;;;;;6.42;5.28;;;;;;;8.90;57.49;93812.61;1765511;78;21658;-51
2023/01/05 09:31:28;;;;;;;14.60;7.40;;;;;;;8.91;57.57;93800.42;1764776;78;21225;-51
2023/01/05 09:33:56;;;;;;;6.67;5.00;;;;;;;8.96;57.61;93802.54;1775659;79;21243;-49
2023/01/05 09:36:24;;;;;;;9.08;4.72;;;;;;;9.01;57.61;93795.05;1781449;78;21046;-51
2023/01/05 09:38:53;;;;;;;5.40;3.50;;;;;;;9.06;58.30;93792.46;1720247;80;21031;-50
2023/01/05 09:41:42;;;;;;;9.20;4.92;;;;;;;9.02;58.89;93782.86;1757804;79;22107;-52
2023/01/05 09:44:15;;;;;;;8.03;5.47;;;;;;;8.99;59.80;93787.90;1745846;80;21097;-50
2023/01/05 09:46:44;;;;;;;10.48;5.90;;;;;;;8.95;60.18;93811.98;1723940;81;21215;-51
2023/01/05 09:49:16;;;;;;;9.73;8.73;;;;;;;8.94;60.05;93795.38;1747071;79;21228;-51
2023/01/05 09:51:43;;;;;;;14.75;8.60;;;;;;;8.90;60.76;93780.45;1735168;80;21053;-52
2023/01/05 09:54:16;;;;;;;15.15;9.18;;;;;;;8.90;60.82;93773.59;1750117;80;21697;-52
2023/01/05 09:56:45;;;;;;;18.10;11.75;;;;;;;8.94;61.18;93772.06;1654701;85;21550;-52
2023/01/05 09:59:32;;;;;;;10.13;8.88;;;;;;;8.98;61.39;93776.78;1645026;84;22044;-51
2023/01/05 10:02:02;;;;;;;8.70;6.30;;;;;;;9.04;61.37;93764.73;1588459;87;21373;-52
2023/01/05 10:04:30;;;;;;;14.53;9.23;;;;;;;9.11;61.22;93734.84;1590627;87;21220;-51
2023/01/05 10:07:07;;;;;;;32.78;19.27;;;;;;;9.16;61.19;93728.73;1606403;85;21118;-54
2023/01/05 10:09:38;;;;;;;16.15;10.25;;;;;;;9.17;61.13;93721.42;1614095;86;21564;-50
2023/01/05 10:15:15;;;;;;;22.22;7.25;;;;;;;9.27;61.01;93730.38;1555960;90;21559;-52
2023/01/05 10:17:43;;;;;;;10.48;7.50;;;;;;;9.33;60.92;93736.75;1547744;90;21097;-54
2023/01/05 10:20:23;;;;;;;24.87;6.95;;;;;;;9.41;60.77;93728.34;1556389;90;21048;-54
2023/01/05 10:23:30;;;;;;;20.12;7.53;;;;;;;9.53;60.64;93723.24;1565171;90;21516;-55
2023/01/05 10:26:05;;;;;;;11.78;5.25;;;;;;;9.60;60.32;93709.19;1557801;89;21612;-54
2023/01/05 10:29:02;;;;;;;11.80;5.37;;;;;;;9.69;59.75;93689.31;1575237;90;22331;-53
2023/01/05 10:32:12;;;;;;;7.67;5.35;;;;;;;9.78;59.63;93678.88;1568972;89;21112;-53
2023/01/05 10:35:17;;;;;;;10.58;8.30;;;;;;;9.85;59.49;93677.15;1528592;91;21132;-50
2023/01/05 10:38:16;;;;;;;10.65;7.47;;;;;;;9.96;59.33;93679.51;1511324;93;21130;-53
2023/01/05 10:41:09;;;;;;;9.40;6.90;;;;;;;10.12;59.05;93675.00;1451421;97;21738;-55
2023/01/05 10:44:23;;;;;;;31.27;4.58;;;;;;;10.26;58.65;93663.29;1493135;94;21316;-50
2023/01/05 10:46:50;;;;;;;8.10;4.58;;;;;;;10.37;57.83;93661.36;1490710;94;21215;-51
2023/01/05 10:49:24;;;;;;;6.30;4.50;;;;;;;10.32;58.34;93637.28;1494675;94;21152;-52
2023/01/05 10:51:51;;;;;;;19.30;6.45;;;;;;;10.30;58.74;93640.49;1433397;97;21225;-52
2023/01/05 10:54:32;;;;;;;11.70;7.30;;;;;;;10.33;58.54;93658.05;1469787;94;21367;-55
2023/01/05 10:57:29;;;;;;;10.08;6.92;;;;;;;10.38;58.32;93655.38;1491832;93;21196;-49
2023/01/05 11:00:07;;;;;;;11.00;4.87;;;;;;;10.46;57.90;93640.64;1426559;98;21159;-53
2023/01/05 11:02:40;;;;;;;6.60;4.12;;;;;;;10.54;57.82;93652.80;1439177;97;21759;-51
2023/01/05 11:05:22;;;;;;;7.20;3.37;;;;;;;10.61;57.53;93653.80;1435045;98;21148;-50
2023/01/05 11:08:01;;;;;;;21.68;10.43;;;;;;;10.58;57.14;93639.02;1441103;98;21240;-49
2023/01/05 11:11:00;;;;;;;22.67;11.35;;;;;;;10.58;56.99;93644.52;1426982;98;21169;-50
2023/01/05 11:13:36;;;;;;;21.70;11.50;;;;;;;10.55;57.08;93639.20;1444365;97;21273;-50
2023/01/05 11:16:14;;;;;;;20.50;9.55;;;;;;;10.51;57.22;93653.76;1447456;97;21046;-51
2023/01/05 11:18:55;;;;;;;24.30;11.95;;;;;;;10.47;57.16;93655.91;1438478;97;21166;-51
2023/01/05 11:21:28;;;;;;;13.53;7.72;;;;;;;10.44;56.86;93647.23;1439880;97;21965;-53
2023/01/05 11:23:58;;;;;;;14.15;6.87;;;;;;;10.35;56.66;93666.58;1440612;97;21236;-50
2023/01/05 11:26:32;;;;;;;18.48;9.08;;;;;;;10.27;56.96;93659.30;1435602;98;21613;-52
2023/01/05 11:29:15;;;;;;;14.07;7.80;;;;;;;10.17;57.14;93662.60;1438647;97;21159;-49
2023/01/05 11:31:52;;;;;;;12.35;7.92;;;;;;;10.06;57.75;93675.51;1433779;97;21215;-49
2023/01/05 11:34:36;;;;;;;5.37;4.40;;;;;;;9.98;59.25;93686.66;1445159;97;21286;-51
2023/01/05 11:37:19;;;;;;;6.33;5.15;;;;;;;9.88;59.77;93685.82;1435273;97;21202;-50
2023/01/05 11:39:56;;;;;;;12.58;7.12;;;;;;;9.70;60.75;93698.30;1440379;98;21162;-51
2023/01/05 11:42:31;;;;;;;11.80;7.50;;;;;;;9.56;61.13;93675.63;1415934;99;21238;-50
2023/01/05 11:45:22;;;;;;;18.62;10.35;;;;;;;9.44;61.84;93678.75;1415966;99;21805;-51
2023/01/05 11:47:56;;;;;;;15.03;9.05;;;;;;;9.36;62.55;93683.67;1463516;96;21312;-52
2023/01/05 11:50:33;;;;;;;8.70;5.08;;;;;;;9.23;63.30;93681.14;1524855;92;21772;-50
2023/01/05 11:55:36;;;;;;;15.95;12.73;;;;;;;8.93;65.09;93680.81;1486250;92;21634;-49
2023/01/05 11:58:26;;;;;;;34.92;21.25;;;;;;;8.87;65.60;93688.75;1521889;92;21107;-48
2023/01/05 12:01:22;;;;;;;14.75;13.35;;;;;;;8.86;65.89;93691.34;1501658;93;21312;-49
2023/01/05 12:04:00;;;;;;;10.53;9.38;;;;;;;8.87;66.36;93683.27;1432332;97;21419;-49
2023/01/05 12:07:01;;;;;;;12.23;11.12;;;;;;;8.91;66.48;93685.97;1414774;98;21240;-49
2023/01/05 12:09:40;;;;;;;6.17;5.58;;;;;;;8.92;66.23;93679.89;1458185;94;21628;-50
2023/01/05 12:12:29;;;;;;;5.97;5.47;;;;;;;8.94;66.16;93684.30;1492679;94;21262;-50
2023/01/05 12:15:08;;;;;;;14.47;7.28;;;;;;;8.98;65.91;93680.78;1528187;91;21259;-50
2023/01/05 12:18:00;;;;;;;9.28;7.53;;;;;;;9.02;66.00;93686.26;1517537;92;21293;-49
2023/01/05 12:20:44;;;;;;;15.35;10.48;;;;;;;9.00;66.36;93687.33;1504718;93;21216;-49
2023/01/05 12:23:40;;;;;;;12.20;8.40;;;;;;;8.91;66.74;93681.86;1508909;93;21249;-52
2023/01/05 12:26:43;;;;;;;14.50;8.60;;;;;;;8.75;66.66;93680.09;1526901;91;21052;-54
2023/01/05 12:29:31;;;;;;;10.38;6.42;;;;;;;8.65;66.93;93670.35;1523843;92;21170;-48
2023/01/05 12:32:22;;;;;;;8.43;5.65;;;;;;;8.62;67.39;93668.54;1532144;91;21336;-50
2023/01/05 12:35:25;;;;;;;6.85;5.78;;;;;;;8.60;67.53;93669.61;1533794;91;21651;-48
2023/01/05 12:38:16;;;;;;;5.97;5.37;;;;;;;8.63;67.56;93678.91;1533032;91;21223;-48
2023/01/05 12:41:12;;;;;;;7.75;5.28;;;;;;;8.94;67.03;93675.48;1539520;89;21077;-48